createdAt,value
2022-11-25T00:01:26.093Z,29.90
2022-11-25T00:03:55.080Z,32.60
2022-11-25T00:06:29.968Z,32.60
2022-11-25T00:08:59.337Z,30.70
2022-11-25T00:11:26.603Z,31.10
2022-11-25T00:13:53.654Z,29.40
2022-11-25T00:16:21.886Z,31.30
2022-11-25T00:18:52.252Z,31.70
2022-11-25T00:21:21.480Z,30.50
2022-11-25T00:23:57.022Z,29.30
2022-11-25T00:26:24.420Z,27.90
2022-11-25T00:28:51.969Z,27.40
2022-11-25T00:31:27.597Z,27.40
2022-11-25T00:33:54.452Z,27.50
2022-11-25T00:36:36.455Z,28.70
2022-11-25T00:39:13.436Z,27.00
2022-11-25T00:41:40.392Z,27.70
2022-11-25T00:44:09.681Z,28.70
2022-11-25T00:46:36.149Z,28.10
2022-11-25T00:49:02.670Z,28.50
2022-11-25T00:51:29.212Z,28.20
2022-11-25T00:53:58.946Z,29.00
2022-11-25T00:56:26.273Z,28.70
2022-11-25T00:58:53.464Z,29.70
2022-11-25T01:01:20.146Z,27.80
2022-11-25T01:03:49.531Z,26.30
2022-11-25T01:06:16.079Z,24.20
2022-11-25T01:08:42.539Z,25.30
2022-11-25T01:11:13.167Z,23.60
2022-11-25T01:13:40.059Z,22.90
2022-11-25T01:16:08.776Z,23.80
2022-11-25T01:18:35.698Z,23.20
2022-11-25T01:21:23.347Z,25.60
2022-11-25T01:23:50.525Z,23.10
2022-11-25T01:26:22.889Z,25.80
2022-11-25T01:28:52.856Z,24.70
2022-11-25T01:31:21.194Z,25.70
2022-11-25T01:33:52.558Z,25.70
2022-11-25T01:36:19.380Z,26.90
2022-11-25T01:38:50.815Z,29.30
2022-11-25T01:43:44.145Z,33.40
2022-11-25T01:46:21.065Z,42.60
2022-11-25T01:48:53.655Z,46.70
2022-11-25T01:51:28.058Z,46.00
2022-11-25T01:54:01.417Z,44.60
2022-11-25T01:56:30.931Z,50.80
2022-11-25T01:58:57.572Z,49.80
2022-11-25T02:01:24.221Z,51.50
2022-11-25T02:03:54.443Z,49.70
2022-11-25T02:06:27.999Z,49.30
2022-11-25T02:08:59.679Z,48.50
2022-11-25T02:11:28.620Z,48.70
2022-11-25T02:13:55.859Z,48.20
2022-11-25T02:16:22.342Z,47.00
2022-11-25T02:18:52.222Z,48.80
2022-11-25T02:21:27.082Z,50.30
2022-11-25T02:23:58.891Z,54.30
2022-11-25T02:26:25.753Z,53.80
2022-11-25T02:28:53.060Z,54.70
2022-11-25T02:31:21.848Z,54.30
2022-11-25T02:33:48.764Z,57.20
2022-11-25T02:36:19.953Z,55.70
2022-11-25T02:38:50.778Z,57.00
2022-11-25T02:41:21.087Z,59.70
2022-11-25T02:43:47.611Z,52.90
2022-11-25T02:46:21.824Z,54.10
2022-11-25T02:51:38.707Z,48.40
2022-11-25T02:54:05.633Z,49.10
2022-11-25T02:56:33.815Z,50.20
2022-11-25T02:59:01.393Z,43.50
2022-11-25T03:01:29.172Z,46.00
2022-11-25T03:03:55.645Z,48.40
2022-11-25T03:06:22.384Z,49.60
2022-11-25T03:08:49.074Z,45.30
2022-11-25T03:11:16.044Z,53.30
2022-11-25T03:13:42.562Z,51.70
2022-11-25T03:16:09.388Z,46.30
2022-11-25T03:18:36.389Z,56.40
2022-11-25T03:21:03.136Z,48.40
2022-11-25T03:23:29.677Z,52.00
2022-11-25T03:25:57.242Z,45.20
2022-11-25T03:28:23.666Z,46.20
2022-11-25T03:30:50.428Z,47.30
2022-11-25T03:33:16.968Z,46.10
2022-11-25T03:35:43.535Z,57.70
2022-11-25T03:38:10.050Z,49.70
2022-11-25T03:40:36.502Z,43.80
2022-11-25T03:43:03.644Z,40.10
2022-11-25T03:45:30.164Z,38.40
2022-11-25T03:47:56.832Z,39.00
2022-11-25T03:50:23.367Z,37.30
2022-11-25T03:52:49.906Z,35.70
2022-11-25T03:55:16.455Z,37.80
2022-11-25T03:57:42.991Z,38.10
2022-11-25T04:00:10.104Z,37.20
2022-11-25T04:02:36.608Z,51.30
2022-11-25T04:05:03.835Z,40.70
2022-11-25T04:07:30.628Z,36.70
2022-11-25T04:09:57.222Z,38.10
2022-11-25T04:12:23.655Z,35.40
2022-11-25T04:14:50.202Z,35.20
2022-11-25T04:17:16.746Z,34.20
2022-11-25T04:19:43.282Z,36.70
2022-11-25T04:22:09.826Z,37.50
2022-11-25T04:24:36.345Z,49.60
2022-11-25T04:27:03.167Z,43.20
2022-11-25T04:29:29.651Z,38.40
2022-11-25T04:31:56.088Z,43.60
2022-11-25T04:34:22.647Z,40.90
2022-11-25T04:36:49.170Z,39.60
2022-11-25T04:39:15.604Z,36.10
2022-11-25T04:41:42.091Z,34.70
2022-11-25T04:44:08.536Z,33.70
2022-11-25T04:46:39.697Z,33.30
2022-11-25T04:49:06.495Z,37.50
2022-11-25T04:51:32.933Z,33.40
2022-11-25T04:53:59.369Z,36.30
2022-11-25T04:56:25.913Z,40.30
2022-11-25T04:58:52.453Z,45.50
2022-11-25T05:01:18.925Z,47.00
2022-11-25T05:03:50.721Z,45.70
2022-11-25T05:06:19.540Z,50.20
2022-11-25T05:08:49.261Z,45.90
2022-11-25T05:11:16.238Z,45.00
2022-11-25T05:13:43.075Z,50.00
2022-11-25T05:16:09.810Z,50.60
2022-11-25T05:18:36.193Z,50.70
2022-11-25T05:21:04.134Z,44.00
2022-11-25T05:23:31.000Z,55.30
2022-11-25T05:26:02.326Z,81.50
2022-11-25T05:28:29.589Z,54.60
2022-11-25T05:30:56.344Z,50.20
2022-11-25T05:33:23.284Z,52.80
2022-11-25T05:36:01.122Z,48.80
2022-11-25T05:38:28.527Z,49.40
2022-11-25T05:41:01.688Z,47.90
2022-11-25T05:43:28.491Z,51.10
2022-11-25T05:45:54.991Z,50.40
2022-11-25T05:48:21.395Z,54.60
2022-11-25T05:50:47.912Z,56.40
2022-11-25T05:53:14.541Z,54.80
2022-11-25T05:55:40.990Z,50.00
2022-11-25T05:58:07.532Z,52.40
2022-11-25T06:00:34.049Z,101.80
2022-11-25T06:03:00.758Z,91.70
2022-11-25T06:05:27.560Z,87.20
2022-11-25T06:07:54.053Z,83.60
2022-11-25T06:10:20.802Z,71.20
2022-11-25T06:12:47.802Z,66.40
2022-11-25T06:15:14.192Z,75.50
2022-11-25T06:17:40.654Z,77.90
2022-11-25T06:20:07.781Z,87.10
2022-11-25T06:22:34.266Z,126.60
2022-11-25T06:25:03.873Z,67.60
2022-11-25T06:27:50.062Z,68.40
2022-11-25T06:30:17.871Z,65.70
2022-11-25T06:32:44.696Z,72.10
2022-11-25T06:35:11.115Z,65.10
2022-11-25T06:37:37.881Z,55.30
2022-11-25T06:40:07.292Z,52.80
2022-11-25T06:42:34.001Z,54.60
2022-11-25T06:45:00.567Z,50.60
2022-11-25T06:47:26.992Z,58.10
2022-11-25T06:49:53.444Z,55.40
2022-11-25T06:52:19.922Z,51.90
2022-11-25T06:54:46.626Z,46.60
2022-11-25T06:57:17.369Z,46.40
2022-11-25T06:59:43.805Z,53.10
2022-11-25T07:02:12.256Z,51.80
2022-11-25T07:04:39.044Z,55.00
2022-11-25T07:07:05.888Z,54.00
2022-11-25T07:09:32.304Z,51.40
2022-11-25T07:11:58.869Z,53.70
2022-11-25T07:14:25.279Z,65.60
2022-11-25T07:16:52.041Z,57.60
2022-11-25T07:19:19.476Z,59.30
2022-11-25T07:21:46.767Z,57.60
2022-11-25T07:24:15.426Z,67.20
2022-11-25T07:26:43.607Z,70.00
2022-11-25T07:29:36.108Z,76.00
2022-11-25T07:32:02.488Z,69.90
2022-11-25T07:34:32.330Z,73.70
2022-11-25T07:36:58.756Z,107.30
2022-11-25T07:39:25.147Z,78.30
2022-11-25T07:41:54.827Z,56.70
2022-11-25T07:44:21.957Z,58.10
2022-11-25T07:46:49.931Z,58.60
2022-11-25T07:49:22.213Z,55.50
2022-11-25T07:51:57.349Z,54.40
2022-11-25T07:54:24.307Z,57.20
2022-11-25T07:56:51.665Z,54.90
2022-11-25T07:59:20.543Z,57.30
2022-11-25T08:01:49.851Z,55.00
2022-11-25T08:04:20.463Z,60.20
2022-11-25T08:06:49.291Z,62.70
2022-11-25T08:09:21.164Z,61.30
2022-11-25T08:11:49.008Z,106.50
2022-11-25T08:14:16.226Z,62.60
2022-11-25T08:16:42.831Z,60.90
2022-11-25T08:19:12.612Z,58.50
2022-11-25T08:21:40.178Z,59.40
2022-11-25T08:24:06.786Z,53.10
2022-11-25T08:26:36.338Z,56.00
2022-11-25T08:29:05.228Z,56.40
2022-11-25T08:31:34.812Z,57.00
2022-11-25T08:34:01.915Z,58.40
2022-11-25T08:36:29.676Z,58.80
2022-11-25T08:38:58.580Z,55.80
2022-11-25T08:41:31.890Z,57.40
2022-11-25T08:44:00.370Z,56.00
2022-11-25T08:46:30.221Z,62.40
2022-11-25T08:48:57.238Z,64.90
2022-11-25T08:51:27.362Z,72.50
2022-11-25T08:53:54.041Z,75.00
2022-11-25T08:56:26.081Z,63.40
2022-11-25T08:58:56.749Z,63.60
2022-11-25T09:01:24.644Z,65.10
2022-11-25T09:03:52.967Z,61.90
2022-11-25T09:06:20.134Z,64.20
2022-11-25T09:08:46.788Z,81.90
2022-11-25T09:11:13.879Z,67.90
2022-11-25T09:13:40.651Z,67.60
2022-11-25T09:16:07.914Z,66.10
2022-11-25T09:18:34.344Z,79.20
2022-11-25T09:21:08.113Z,63.10
2022-11-25T09:23:34.601Z,66.10
2022-11-25T09:26:01.036Z,74.60
2022-11-25T09:28:27.504Z,80.00
2022-11-25T09:30:54.986Z,87.00
2022-11-25T09:33:21.806Z,73.20
2022-11-25T09:35:48.542Z,76.20
2022-11-25T09:38:15.081Z,78.50
2022-11-25T09:40:56.910Z,63.20
2022-11-25T09:44:01.493Z,59.10
2022-11-25T09:47:04.287Z,59.80
2022-11-25T09:49:52.796Z,59.80
2022-11-25T09:52:22.263Z,54.80
2022-11-25T09:54:57.201Z,53.70
2022-11-25T09:57:56.471Z,57.60
2022-11-25T10:00:33.789Z,74.90
2022-11-25T10:03:06.489Z,73.00
2022-11-25T10:05:44.896Z,73.20
2022-11-25T10:08:21.049Z,62.30
2022-11-25T10:10:53.190Z,57.80
2022-11-25T10:13:32.146Z,58.50
2022-11-25T10:16:04.021Z,59.90
2022-11-25T10:18:39.565Z,59.30
2022-11-25T10:21:06.342Z,60.90
2022-11-25T10:23:36.876Z,65.20
2022-11-25T10:26:12.385Z,61.40
2022-11-25T10:28:43.968Z,57.60
2022-11-25T10:31:17.827Z,57.00
2022-11-25T10:33:46.243Z,56.00
2022-11-25T10:36:23.751Z,61.30
2022-11-25T10:39:05.227Z,71.20
2022-11-25T10:41:53.547Z,95.50
2022-11-25T10:44:27.184Z,88.60
2022-11-25T10:47:18.032Z,108.90
2022-11-25T10:50:18.584Z,92.00
2022-11-25T10:53:00.918Z,87.30
2022-11-25T10:55:30.165Z,86.60
2022-11-25T10:57:56.783Z,93.40
2022-11-25T11:00:43.490Z,95.30
2022-11-25T11:03:16.142Z,97.10
2022-11-25T11:05:49.115Z,101.40
2022-11-25T11:08:19.910Z,96.70
2022-11-25T11:10:51.689Z,93.40
2022-11-25T11:13:24.913Z,110.70
2022-11-25T11:15:54.216Z,99.50
2022-11-25T11:18:38.909Z,100.90
2022-11-25T11:21:08.517Z,98.40
2022-11-25T11:23:50.899Z,119.10
2022-11-25T11:26:34.603Z,107.80
2022-11-25T11:29:03.188Z,111.30
2022-11-25T11:31:36.609Z,113.80
2022-11-25T11:34:18.618Z,105.40
2022-11-25T11:36:45.034Z,110.20
2022-11-25T11:39:30.010Z,120.00
2022-11-25T11:42:06.778Z,118.50
2022-11-25T11:44:54.823Z,105.20
2022-11-25T11:47:58.229Z,102.80
2022-11-25T11:50:37.056Z,104.00
2022-11-25T11:53:30.730Z,101.40
2022-11-25T11:56:35.374Z,92.80
2022-11-25T11:59:23.394Z,88.80
2022-11-25T12:01:58.806Z,89.90
2022-11-25T12:04:36.487Z,91.00
2022-11-25T12:07:47.498Z,91.90
2022-11-25T12:10:58.699Z,93.70
2022-11-25T12:13:42.206Z,95.60
2022-11-25T12:16:17.485Z,105.60
2022-11-25T12:19:06.679Z,104.80
2022-11-25T12:22:00.971Z,114.70
2022-11-25T12:24:53.248Z,124.50
2022-11-25T12:27:38.605Z,125.40
2022-11-25T12:30:18.794Z,147.10
2022-11-25T12:33:01.682Z,146.30
2022-11-25T12:35:37.852Z,130.30
2022-11-25T12:38:04.316Z,121.40
2022-11-25T12:40:53.043Z,121.20
2022-11-25T12:43:42.733Z,138.80
2022-11-25T12:46:12.256Z,125.30
2022-11-25T12:48:41.859Z,115.90
2022-11-25T12:51:26.971Z,123.40
2022-11-25T12:54:34.397Z,126.30
2022-11-25T12:57:07.328Z,118.40
2022-11-25T13:00:11.308Z,107.20
2022-11-25T13:02:57.347Z,88.80
2022-11-25T13:06:04.647Z,89.70
2022-11-25T13:08:49.203Z,87.10
2022-11-25T13:11:31.104Z,90.20
2022-11-25T13:14:13.436Z,90.20
2022-11-25T13:16:42.560Z,86.00
2022-11-25T13:19:10.696Z,87.00
2022-11-25T13:21:54.456Z,90.40
2022-11-25T13:24:47.739Z,106.10
2022-11-25T13:27:33.720Z,126.50
2022-11-25T13:30:01.092Z,122.00
2022-11-25T13:32:35.205Z,120.90
2022-11-25T13:35:23.867Z,122.90
2022-11-25T13:37:51.385Z,124.60
2022-11-25T13:40:21.323Z,132.40
2022-11-25T13:42:47.949Z,124.00
2022-11-25T13:45:38.191Z,127.70
2022-11-25T13:48:32.136Z,131.40
2022-11-25T13:51:19.010Z,140.70
2022-11-25T13:53:56.348Z,131.00
2022-11-25T13:56:30.361Z,139.30
2022-11-25T13:59:12.281Z,130.40
2022-11-25T14:01:46.226Z,136.00
2022-11-25T14:04:15.661Z,142.50
2022-11-25T14:07:09.728Z,148.30
2022-11-25T14:10:02.924Z,145.80
2022-11-25T14:12:47.710Z,137.30
2022-11-25T14:15:14.146Z,139.00
2022-11-25T14:18:02.206Z,134.50
2022-11-25T14:20:34.465Z,145.30
2022-11-25T14:23:00.928Z,137.90
2022-11-25T14:25:32.185Z,135.80
2022-11-25T14:28:20.694Z,136.80
2022-11-25T14:30:53.602Z,145.60
2022-11-25T14:33:34.253Z,161.70
2022-11-25T14:36:08.013Z,150.70
2022-11-25T14:38:48.865Z,141.10
2022-11-25T14:41:52.470Z,138.60
2022-11-25T14:44:28.267Z,134.30
2022-11-25T14:46:57.603Z,125.90
2022-11-25T14:49:59.641Z,120.70
2022-11-25T14:52:17.221Z,120.30
2022-11-25T14:54:45.442Z,113.80
2022-11-25T14:57:12.276Z,116.10
2022-11-25T14:59:44.978Z,102.80
2022-11-25T15:02:58.536Z,93.40
2022-11-25T15:05:30.865Z,95.10
2022-11-25T15:08:09.105Z,103.10
2022-11-25T15:10:44.124Z,102.40
2022-11-25T15:13:38.306Z,106.70
2022-11-25T15:16:12.432Z,106.90
2022-11-25T15:18:47.885Z,101.70
2022-11-25T15:21:15.954Z,106.60
2022-11-25T15:23:42.798Z,118.10
2022-11-25T15:26:17.425Z,114.30
2022-11-25T15:28:44.276Z,108.90
2022-11-25T15:31:17.639Z,108.50
2022-11-25T15:33:45.046Z,100.10
2022-11-25T15:36:11.964Z,109.60
2022-11-25T15:38:44.124Z,103.80
2022-11-25T15:41:21.046Z,99.90
2022-11-25T15:43:51.419Z,99.80
2022-11-25T15:46:18.307Z,104.30
2022-11-25T15:48:47.317Z,104.30
2022-11-25T15:51:41.664Z,106.70
2022-11-25T15:54:21.998Z,121.70
2022-11-25T15:56:53.135Z,168.50
2022-11-25T15:59:45.399Z,157.10
2022-11-25T16:02:30.719Z,164.50
2022-11-25T16:05:12.305Z,118.80
2022-11-25T16:10:25.337Z,95.80
2022-11-25T16:13:22.126Z,123.30
2022-11-25T16:16:07.548Z,164.90
2022-11-25T16:18:42.728Z,180.10
2022-11-25T16:21:13.824Z,197.90
2022-11-25T16:23:43.998Z,204.50
2022-11-25T16:26:15.809Z,196.20
2022-11-25T16:28:50.352Z,174.70
2022-11-25T16:31:17.570Z,165.40
2022-11-25T16:33:44.332Z,164.80
2022-11-25T16:36:10.870Z,156.80
2022-11-25T16:38:37.309Z,155.20
2022-11-25T16:41:30.282Z,173.60
2022-11-25T16:44:00.282Z,173.10
2022-11-25T16:46:29.568Z,157.70
2022-11-25T16:48:56.233Z,165.10
2022-11-25T16:51:24.520Z,177.90
2022-11-25T16:53:51.408Z,197.10
2022-11-25T16:56:26.690Z,214.20
2022-11-25T16:58:53.968Z,204.00
2022-11-25T17:01:24.712Z,196.30
2022-11-25T17:03:51.277Z,196.50
2022-11-25T17:06:22.391Z,232.50
2022-11-25T17:08:50.779Z,226.80
2022-11-25T17:11:32.259Z,211.50
2022-11-25T17:14:02.447Z,226.50
2022-11-25T17:16:30.026Z,217.00
2022-11-25T17:18:59.560Z,227.30
2022-11-25T17:21:27.335Z,236.40
2022-11-25T17:23:55.496Z,236.10
2022-11-25T17:26:31.059Z,228.20
2022-11-25T17:29:00.220Z,244.30
2022-11-25T17:31:29.971Z,214.10
2022-11-25T17:33:56.728Z,203.50
2022-11-25T17:36:24.366Z,198.00
2022-11-25T17:38:50.835Z,201.80
2022-11-25T17:41:19.521Z,199.50
2022-11-25T17:43:49.036Z,198.10
2022-11-25T17:46:17.647Z,215.30
2022-11-25T17:48:44.774Z,264.60
2022-11-25T17:51:13.256Z,240.80
2022-11-25T17:53:41.114Z,223.30
2022-11-25T17:56:28.456Z,184.50
2022-11-25T17:58:59.177Z,196.30
2022-11-25T18:01:25.647Z,194.20
2022-11-25T18:03:52.384Z,200.90
2022-11-25T18:06:19.329Z,216.00
2022-11-25T18:08:45.767Z,200.60
2022-11-25T18:11:18.684Z,205.30
2022-11-25T18:13:47.332Z,197.10
2022-11-25T18:16:17.132Z,233.00
2022-11-25T18:18:43.609Z,226.10
2022-11-25T18:21:11.532Z,223.10
2022-11-25T18:23:38.104Z,229.90
2022-11-25T18:26:05.099Z,242.50
2022-11-25T18:28:32.837Z,238.80
2022-11-25T18:31:04.859Z,247.20
2022-11-25T18:33:31.996Z,241.70
2022-11-25T18:35:58.679Z,223.00
2022-11-25T18:38:25.347Z,234.40
2022-11-25T18:40:53.805Z,219.10
2022-11-25T18:43:23.202Z,236.40
2022-11-25T18:45:50.086Z,242.70
2022-11-25T18:48:19.886Z,234.30
2022-11-25T18:50:49.232Z,221.50
2022-11-25T18:53:16.167Z,222.10
2022-11-25T18:55:43.467Z,208.00
2022-11-25T18:58:23.582Z,216.70
2022-11-25T19:00:52.023Z,241.10
2022-11-25T19:03:24.771Z,252.50
2022-11-25T19:05:52.113Z,202.40
2022-11-25T19:08:18.689Z,204.50
2022-11-25T19:10:47.043Z,218.40
2022-11-25T19:13:35.309Z,205.30
2022-11-25T19:16:07.225Z,201.70
2022-11-25T19:18:35.006Z,204.00
2022-11-25T19:21:01.584Z,190.70
2022-11-25T19:23:28.179Z,202.30
2022-11-25T19:26:00.925Z,231.00
2022-11-25T19:28:29.483Z,240.70
2022-11-25T19:31:00.300Z,212.70
2022-11-25T19:33:31.014Z,204.10
2022-11-25T19:35:57.947Z,185.90
2022-11-25T19:38:24.573Z,171.70
2022-11-25T19:40:54.769Z,170.90
2022-11-25T19:43:21.985Z,172.80
2022-11-25T19:45:51.357Z,179.60
2022-11-25T19:48:20.942Z,199.00
2022-11-25T19:50:49.688Z,180.00
2022-11-25T19:53:20.211Z,172.30
2022-11-25T19:55:47.941Z,166.60
2022-11-25T19:58:15.319Z,211.50
2022-11-25T20:00:43.932Z,188.60
2022-11-25T20:03:17.482Z,155.90
2022-11-25T20:05:44.850Z,142.40
2022-11-25T20:08:19.863Z,126.90
2022-11-25T20:10:46.625Z,145.80
2022-11-25T20:13:13.788Z,136.20
2022-11-25T20:15:41.272Z,160.70
2022-11-25T20:18:17.822Z,199.80
2022-11-25T20:20:46.639Z,190.40
2022-11-25T20:23:43.675Z,227.70
2022-11-25T20:26:18.888Z,202.40
2022-11-25T20:28:45.806Z,205.20
2022-11-25T20:31:13.034Z,236.40
2022-11-25T20:33:39.544Z,201.50
2022-11-25T20:36:11.915Z,202.80
2022-11-25T20:38:47.409Z,191.00
2022-11-25T20:41:15.234Z,178.40
2022-11-25T20:43:43.439Z,176.70
2022-11-25T20:46:24.528Z,166.00
2022-11-25T20:48:56.857Z,162.60
2022-11-25T20:51:24.261Z,193.10
2022-11-25T20:54:00.799Z,167.50
2022-11-25T20:56:28.464Z,154.90
2022-11-25T20:58:55.503Z,149.60
2022-11-25T21:01:22.630Z,138.80
2022-11-25T21:03:50.457Z,114.40
2022-11-25T21:06:16.983Z,108.80
2022-11-25T21:08:47.464Z,103.50
2022-11-25T21:11:14.568Z,117.60
2022-11-25T21:13:41.215Z,128.50
2022-11-25T21:16:07.764Z,124.80
2022-11-25T21:18:34.408Z,124.30
2022-11-25T21:21:01.241Z,128.70
2022-11-25T21:23:35.559Z,132.50
2022-11-25T21:26:20.431Z,122.30
2022-11-25T21:28:49.024Z,139.40
2022-11-25T21:31:24.428Z,128.30
2022-11-25T21:33:56.115Z,138.20
2022-11-25T21:36:28.721Z,135.40
2022-11-25T21:39:05.682Z,123.00
2022-11-25T21:41:33.435Z,129.30
2022-11-25T21:44:00.499Z,149.50
2022-11-25T21:46:27.010Z,138.80
2022-11-25T21:48:53.684Z,129.30
2022-11-25T21:51:20.739Z,126.10
2022-11-25T21:53:47.996Z,123.60
2022-11-25T21:56:25.081Z,116.30
2022-11-25T21:58:51.927Z,113.10
2022-11-25T22:01:18.820Z,114.70
2022-11-25T22:03:45.411Z,106.40
2022-11-25T22:06:26.912Z,111.00
2022-11-25T22:08:54.159Z,125.90
2022-11-25T22:11:32.856Z,136.30
2022-11-25T22:14:02.845Z,134.90
2022-11-25T22:16:32.781Z,129.00
2022-11-25T22:19:00.133Z,130.10
2022-11-25T22:21:26.732Z,159.10
2022-11-25T22:23:53.174Z,141.70
2022-11-25T22:26:26.773Z,161.60
2022-11-25T22:28:54.033Z,161.70
2022-11-25T22:31:21.131Z,150.30
2022-11-25T22:33:48.821Z,137.50
2022-11-25T22:36:35.169Z,130.60
2022-11-25T22:39:13.385Z,127.60
2022-11-25T22:41:42.293Z,117.10
2022-11-25T22:44:19.241Z,111.80
2022-11-25T22:46:46.483Z,111.90
2022-11-25T22:49:38.881Z,116.90
2022-11-25T22:52:10.019Z,120.00
2022-11-25T22:55:21.094Z,107.20
2022-11-25T22:58:32.202Z,119.30
2022-11-25T23:01:43.069Z,117.60
2022-11-25T23:04:53.926Z,111.70
2022-11-25T23:08:04.201Z,111.50
2022-11-25T23:11:14.879Z,96.80
2022-11-25T23:14:24.726Z,98.00
2022-11-25T23:16:51.364Z,99.70
2022-11-25T23:19:17.924Z,102.40
2022-11-25T23:21:45.293Z,112.70
2022-11-25T23:24:15.638Z,111.30
2022-11-25T23:26:43.899Z,112.30
2022-11-25T23:29:10.438Z,119.30
2022-11-25T23:31:39.633Z,111.70
2022-11-25T23:34:07.544Z,116.30
2022-11-25T23:36:44.752Z,129.90
2022-11-25T23:39:21.570Z,115.60
2022-11-25T23:41:48.544Z,118.90
2022-11-25T23:44:21.647Z,113.20
2022-11-25T23:46:48.721Z,108.20
2022-11-25T23:49:28.567Z,115.90
2022-11-25T23:51:57.442Z,113.70
2022-11-25T23:54:54.314Z,130.00
2022-11-25T23:57:31.690Z,117.50
2022-11-25T23:59:58.840Z,113.00
